createdAt,value
2018-09-03T00:00:22.398Z,52.90
2018-09-03T00:02:51.259Z,52.70
2018-09-03T00:05:20.119Z,52.60
2018-09-03T00:07:48.937Z,53.60
2018-09-03T00:10:17.897Z,54.30
2018-09-03T00:12:46.730Z,53.70
2018-09-03T00:15:15.596Z,54.30
2018-09-03T00:17:45.004Z,55.50
2018-09-03T00:20:14.316Z,54.70
2018-09-03T00:22:43.155Z,54.30
2018-09-03T00:25:12.300Z,54.20
2018-09-03T00:27:41.149Z,54.30
2018-09-03T00:30:09.997Z,54.80
2018-09-03T00:32:44.311Z,54.90
2018-09-03T00:35:18.652Z,55.00
2018-09-03T00:37:52.844Z,55.20
2018-09-03T00:40:26.937Z,54.30
2018-09-03T00:43:01.292Z,54.70
2018-09-03T00:45:35.639Z,54.80
2018-09-03T00:48:04.532Z,54.60
2018-09-03T00:50:33.383Z,54.20
2018-09-03T00:53:02.323Z,53.70
2018-09-03T00:55:31.175Z,54.80
2018-09-03T00:58:00.137Z,55.50
2018-09-03T01:00:28.977Z,54.90
2018-09-03T01:02:57.919Z,54.10
2018-09-03T01:05:26.753Z,54.90
2018-09-03T01:07:55.576Z,55.80
2018-09-03T01:10:24.446Z,55.60
2018-09-03T01:12:53.278Z,54.70
2018-09-03T01:15:23.095Z,54.10
2018-09-03T01:17:51.944Z,55.30
2018-09-03T01:20:20.785Z,54.70
2018-09-03T01:22:49.607Z,54.30
2018-09-03T01:25:18.484Z,54.90
2018-09-03T01:27:47.332Z,55.70
2018-09-03T01:30:16.197Z,54.60
2018-09-03T01:32:44.996Z,54.40
2018-09-03T01:35:13.816Z,54.20
2018-09-03T01:37:42.717Z,53.80
2018-09-03T01:40:11.549Z,53.40
2018-09-03T01:42:40.382Z,53.20
2018-09-03T01:45:09.264Z,53.00
2018-09-03T01:47:38.139Z,53.10
2018-09-03T01:50:07.088Z,52.90
2018-09-03T01:52:35.995Z,52.70
2018-09-03T01:55:04.818Z,52.60
2018-09-03T01:57:33.730Z,53.70
2018-09-03T02:00:02.593Z,54.30
2018-09-03T02:02:31.458Z,55.50
2018-09-03T02:05:00.647Z,55.00
2018-09-03T02:07:29.484Z,54.10
2018-09-03T02:09:58.336Z,53.60
2018-09-03T02:12:27.170Z,53.20
2018-09-03T02:14:56.020Z,53.60
2018-09-03T02:17:24.868Z,52.80
2018-09-03T02:19:53.693Z,53.20
2018-09-03T02:22:22.558Z,53.20
2018-09-03T02:24:51.409Z,53.50
2018-09-03T02:27:20.321Z,54.00
2018-09-03T02:29:49.143Z,53.80
2018-09-03T02:32:18.017Z,53.70
2018-09-03T02:34:46.879Z,53.60
2018-09-03T02:37:15.837Z,53.30
2018-09-03T02:39:44.661Z,53.60
2018-09-03T02:42:13.539Z,53.50
2018-09-03T02:44:42.433Z,53.30
2018-09-03T02:47:11.305Z,53.10
2018-09-03T02:49:40.138Z,53.20
2018-09-03T02:52:08.983Z,53.20
2018-09-03T02:54:37.802Z,53.00
2018-09-03T02:57:06.654Z,54.60
2018-09-03T02:59:35.515Z,56.30
2018-09-03T03:02:04.685Z,57.50
2018-09-03T03:04:33.550Z,57.50
2018-09-03T03:07:02.454Z,57.10
2018-09-03T03:09:31.318Z,56.70
2018-09-03T03:12:00.171Z,56.00
2018-09-03T03:14:29.096Z,57.20
2018-09-03T03:16:57.972Z,58.10
2018-09-03T03:19:26.872Z,57.50
2018-09-03T03:21:55.731Z,56.50
2018-09-03T03:24:24.618Z,55.80
2018-09-03T03:26:53.474Z,55.20
2018-09-03T03:29:22.324Z,54.90
2018-09-03T03:31:51.348Z,54.80
2018-09-03T03:34:20.221Z,55.10
2018-09-03T03:36:49.083Z,55.10
2018-09-03T03:39:17.999Z,55.00
2018-09-03T03:41:46.832Z,54.70
2018-09-03T03:44:15.696Z,55.50
2018-09-03T03:46:44.600Z,58.20
2018-09-03T03:49:13.442Z,59.50
2018-09-03T03:51:42.300Z,60.00
2018-09-03T03:54:11.157Z,58.90
2018-09-03T03:56:40.064Z,58.30
2018-09-03T03:59:08.863Z,58.30
2018-09-03T04:01:37.709Z,57.80
2018-09-03T04:04:06.853Z,57.30
2018-09-03T04:06:35.748Z,58.10
2018-09-03T04:09:07.208Z,58.70
2018-09-03T04:11:36.100Z,58.00
2018-09-03T04:14:04.942Z,58.10
2018-09-03T04:16:33.782Z,57.30
2018-09-03T04:19:02.664Z,56.60
2018-09-03T04:21:31.527Z,56.40
2018-09-03T04:24:00.448Z,56.50
2018-09-03T04:26:29.329Z,57.10
2018-09-03T04:28:58.279Z,57.40
2018-09-03T04:31:27.131Z,57.50
2018-09-03T04:33:56.044Z,56.90
2018-09-03T04:36:24.961Z,57.00
2018-09-03T04:38:53.859Z,56.10
2018-09-03T04:41:22.693Z,57.10
2018-09-03T04:43:51.557Z,57.10
2018-09-03T04:46:20.459Z,56.60
2018-09-03T04:48:49.358Z,56.70
2018-09-03T04:51:18.664Z,58.10
2018-09-03T04:53:47.506Z,58.10
2018-09-03T04:56:16.379Z,57.60
2018-09-03T04:58:45.198Z,57.00
2018-09-03T05:01:14.352Z,57.60
2018-09-03T05:03:43.228Z,57.30
2018-09-03T05:06:12.135Z,56.50
2018-09-03T05:08:40.916Z,56.10
2018-09-03T05:11:09.750Z,56.30
2018-09-03T05:13:38.596Z,55.50
2018-09-03T05:16:07.613Z,55.70
2018-09-03T05:18:36.481Z,55.80
2018-09-03T05:21:05.365Z,55.50
2018-09-03T05:23:34.333Z,55.30
2018-09-03T05:26:03.203Z,55.60
2018-09-03T05:28:32.399Z,56.30
2018-09-03T05:31:02.036Z,56.30
2018-09-03T05:33:30.928Z,57.50
2018-09-03T05:35:59.964Z,57.60
2018-09-03T05:38:28.881Z,57.40
2018-09-03T05:40:58.656Z,58.30
2018-09-03T05:43:27.677Z,58.20
2018-09-03T05:45:56.508Z,59.70
2018-09-03T05:48:25.410Z,59.90
2018-09-03T05:50:54.273Z,58.60
2018-09-03T05:53:23.150Z,58.30
2018-09-03T05:55:51.981Z,59.10
2018-09-03T05:58:20.907Z,59.60
2018-09-03T06:00:49.786Z,59.00
2018-09-03T06:03:18.677Z,59.60
2018-09-03T06:05:47.585Z,59.30
2018-09-03T06:08:16.508Z,58.90
2018-09-03T06:10:45.389Z,58.90
2018-09-03T06:13:14.285Z,59.50
2018-09-03T06:15:43.160Z,59.10
2018-09-03T06:18:12.043Z,59.40
2018-09-03T06:20:40.992Z,59.20
2018-09-03T06:23:09.843Z,58.80
2018-09-03T06:25:38.697Z,58.40
2018-09-03T06:28:07.760Z,59.00
2018-09-03T06:30:36.730Z,60.80
2018-09-03T06:33:05.624Z,60.80
2018-09-03T06:35:34.481Z,61.10
2018-09-03T06:38:03.356Z,62.30
2018-09-03T06:40:32.224Z,62.20
2018-09-03T06:43:01.100Z,62.70
2018-09-03T06:45:29.981Z,61.90
2018-09-03T06:47:58.842Z,60.80
2018-09-03T06:50:27.688Z,60.30
2018-09-03T06:52:56.611Z,61.90
2018-09-03T06:55:25.500Z,61.90
2018-09-03T06:57:54.425Z,62.00
2018-09-03T07:00:23.356Z,62.90
2018-09-03T07:02:52.343Z,61.70
2018-09-03T07:05:21.257Z,61.60
2018-09-03T07:07:50.134Z,61.70
2018-09-03T07:10:19.160Z,62.10
2018-09-03T07:12:48.060Z,62.50
2018-09-03T07:15:17.564Z,62.80
2018-09-03T07:17:46.534Z,62.20
2018-09-03T07:20:15.410Z,63.20
2018-09-03T07:22:44.253Z,63.50
2018-09-03T07:25:13.107Z,63.90
2018-09-03T07:27:41.986Z,64.00
2018-09-03T07:30:10.843Z,64.20
2018-09-03T07:32:39.687Z,63.70
2018-09-03T07:35:08.615Z,63.80
2018-09-03T07:37:37.423Z,62.80
2018-09-03T07:40:07.134Z,61.90
2018-09-03T07:42:36.007Z,62.10
2018-09-03T07:45:04.864Z,62.80
2018-09-03T07:47:33.837Z,62.30
2018-09-03T07:50:02.775Z,63.10
2018-09-03T07:52:31.656Z,64.20
2018-09-03T07:55:00.585Z,63.60
2018-09-03T07:57:29.459Z,63.70
2018-09-03T07:59:58.295Z,64.20
2018-09-03T08:02:27.848Z,64.00
2018-09-03T08:04:57.125Z,62.90
2018-09-03T08:07:26.034Z,61.90
2018-09-03T08:09:54.889Z,61.10
2018-09-03T08:12:23.776Z,61.30
2018-09-03T08:14:52.617Z,62.60
2018-09-03T08:17:21.503Z,63.50
2018-09-03T08:19:50.367Z,63.30
2018-09-03T08:22:19.291Z,63.40
2018-09-03T08:24:48.139Z,62.70
2018-09-03T08:27:16.976Z,62.20
2018-09-03T08:29:45.901Z,62.10
2018-09-03T08:32:14.755Z,62.30
2018-09-03T08:34:43.599Z,61.80
2018-09-03T08:37:12.436Z,61.90
2018-09-03T08:39:41.940Z,61.40
2018-09-03T08:42:10.860Z,60.80
2018-09-03T08:44:39.880Z,60.30
2018-09-03T08:47:08.835Z,60.10
2018-09-03T08:49:37.729Z,60.00
2018-09-03T08:52:06.634Z,60.00
2018-09-03T08:54:35.538Z,60.90
2018-09-03T08:57:04.801Z,60.70
2018-09-03T08:59:34.451Z,61.40
2018-09-03T09:02:03.430Z,61.30
2018-09-03T09:04:32.296Z,61.30
2018-09-03T09:07:01.166Z,60.80
2018-09-03T09:09:30.014Z,60.00
2018-09-03T09:11:59.483Z,60.70
2018-09-03T09:14:28.420Z,60.30
2018-09-03T09:16:57.406Z,59.60
2018-09-03T09:19:26.255Z,59.10
2018-09-03T09:21:55.084Z,58.70
2018-09-03T09:24:24.073Z,58.80
2018-09-03T09:26:52.885Z,58.60
2018-09-03T09:29:21.815Z,58.30
2018-09-03T09:31:50.685Z,59.10
2018-09-03T09:34:19.603Z,59.00
2018-09-03T09:36:48.469Z,58.30
2018-09-03T09:39:17.314Z,58.00
2018-09-03T09:41:46.313Z,57.80
2018-09-03T09:44:15.220Z,57.90
2018-09-03T09:46:44.646Z,57.70
2018-09-03T09:49:13.544Z,57.40
2018-09-03T09:51:42.598Z,57.20
2018-09-03T09:54:11.427Z,56.90
2018-09-03T09:56:40.286Z,56.90
2018-09-03T09:59:09.273Z,56.80
2018-09-03T10:01:39.693Z,56.50
2018-09-03T10:04:09.174Z,56.50
2018-09-03T10:06:38.135Z,56.00
2018-09-03T10:09:07.895Z,55.80
2018-09-03T10:11:36.798Z,55.40
2018-09-03T10:14:06.052Z,54.80
2018-09-03T10:16:34.981Z,54.30
2018-09-03T10:19:04.634Z,54.00
2018-09-03T10:21:33.623Z,53.90
2018-09-03T10:24:02.511Z,53.70
2018-09-03T10:26:31.922Z,53.50
2018-09-03T10:29:01.557Z,53.30
2018-09-03T10:31:30.446Z,53.10
2018-09-03T10:33:59.333Z,53.10
2018-09-03T10:36:28.308Z,52.40
2018-09-03T10:38:57.187Z,51.70
2018-09-03T10:41:26.054Z,51.60
2018-09-03T10:43:55.043Z,51.50
2018-09-03T10:46:23.966Z,51.60
2018-09-03T10:48:52.832Z,51.40
2018-09-03T10:51:21.824Z,51.60
2018-09-03T10:53:50.761Z,51.40
2018-09-03T10:56:19.684Z,51.30
2018-09-03T10:58:48.531Z,51.30
2018-09-03T11:01:18.206Z,51.10
2018-09-03T11:03:47.087Z,50.90
2018-09-03T11:06:16.058Z,50.60
2018-09-03T11:08:44.934Z,50.50
2018-09-03T11:11:13.799Z,50.40
2018-09-03T11:13:42.702Z,50.20
2018-09-03T11:16:11.599Z,50.00
2018-09-03T11:18:40.458Z,49.90
2018-09-03T11:21:09.332Z,49.40
2018-09-03T11:23:38.801Z,48.90
2018-09-03T11:26:07.704Z,48.90
2018-09-03T11:28:36.702Z,49.30
2018-09-03T11:31:05.587Z,49.30
2018-09-03T11:33:34.601Z,48.40
2018-09-03T11:36:03.487Z,47.70
2018-09-03T11:38:33.085Z,47.40
2018-09-03T11:41:02.080Z,47.80
2018-09-03T11:43:31.040Z,47.70
2018-09-03T11:45:59.935Z,47.00
2018-09-03T11:48:28.937Z,46.90
2018-09-03T11:50:57.842Z,46.40
2018-09-03T11:53:26.736Z,46.80
2018-09-03T11:55:55.610Z,47.40
2018-09-03T11:58:24.608Z,46.90
2018-09-03T12:00:57.557Z,47.00
2018-09-03T12:03:26.463Z,47.00
2018-09-03T12:05:55.441Z,46.10
2018-09-03T12:08:24.406Z,45.70
2018-09-03T12:10:53.353Z,45.70
2018-09-03T12:13:22.200Z,45.10
2018-09-03T12:16:24.442Z,45.30
2018-09-03T12:18:55.706Z,45.80
2018-09-03T12:21:24.609Z,45.40
2018-09-03T12:23:53.477Z,44.70
2018-09-03T12:26:22.387Z,45.40
2018-09-03T12:28:51.284Z,45.60
2018-09-03T12:31:20.230Z,45.30
2018-09-03T12:33:49.128Z,45.40
2018-09-03T12:36:18.122Z,44.90
2018-09-03T12:38:47.163Z,45.90
2018-09-03T12:41:16.054Z,46.10
2018-09-03T12:43:44.923Z,45.60
2018-09-03T12:46:13.904Z,45.90
2018-09-03T12:48:42.885Z,45.80
2018-09-03T12:51:11.779Z,45.40
2018-09-03T12:53:40.635Z,45.20
2018-09-03T12:56:09.462Z,44.90
2018-09-03T12:58:38.387Z,44.90
2018-09-03T13:01:07.268Z,44.10
2018-09-03T13:03:36.139Z,43.90
2018-09-03T13:06:05.331Z,43.20
2018-09-03T13:08:34.228Z,44.40
2018-09-03T13:11:03.115Z,44.80
2018-09-03T13:13:32.015Z,44.90
2018-09-03T13:16:00.889Z,44.30
2018-09-03T13:18:29.855Z,44.50
2018-09-03T13:20:58.706Z,44.00
2018-09-03T13:23:27.623Z,43.20
2018-09-03T13:25:56.488Z,44.10
2018-09-03T13:28:25.666Z,44.00
2018-09-03T13:30:54.557Z,43.40
2018-09-03T13:33:23.365Z,43.60
2018-09-03T13:35:52.279Z,43.30
2018-09-03T13:38:21.160Z,42.00
2018-09-03T13:40:50.094Z,41.70
2018-09-03T13:43:18.896Z,41.80
2018-09-03T13:45:47.724Z,41.50
2018-09-03T13:48:16.602Z,42.50
2018-09-03T13:50:45.443Z,42.60
2018-09-03T13:53:14.361Z,42.10
2018-09-03T13:55:43.270Z,43.20
2018-09-03T13:58:12.239Z,41.90
2018-09-03T14:00:41.265Z,41.60
2018-09-03T14:03:10.230Z,41.00
2018-09-03T14:08:07.711Z,42.50
2018-09-03T14:10:36.599Z,42.70
2018-09-03T14:13:05.540Z,42.70
2018-09-03T14:15:34.476Z,42.50
2018-09-03T14:18:03.313Z,43.20
2018-09-03T14:20:32.583Z,43.20
2018-09-03T14:23:01.443Z,42.70
2018-09-03T14:25:30.307Z,42.10
2018-09-03T14:27:59.340Z,42.30
2018-09-03T14:30:28.864Z,43.00
2018-09-03T14:32:57.789Z,42.00
2018-09-03T14:35:26.660Z,42.60
2018-09-03T14:37:55.524Z,43.10
2018-09-03T14:47:50.219Z,41.20
2018-09-03T14:55:16.917Z,41.50
2018-09-03T14:57:45.913Z,41.70
2018-09-03T15:00:14.802Z,40.80
2018-09-03T15:02:43.644Z,40.50
2018-09-03T15:05:12.578Z,39.90
2018-09-03T15:07:41.553Z,39.90
2018-09-03T15:10:10.535Z,40.00
2018-09-03T15:12:39.491Z,40.10
2018-09-03T15:15:08.408Z,40.30
2018-09-03T15:17:37.212Z,40.70
2018-09-03T15:20:06.615Z,41.30
2018-09-03T15:22:35.572Z,41.30
2018-09-03T15:25:05.258Z,41.00
2018-09-03T15:27:34.170Z,40.40
2018-09-03T15:30:03.135Z,39.70
2018-09-03T15:32:31.964Z,40.60
2018-09-03T15:35:00.877Z,40.30
2018-09-03T15:37:29.768Z,40.00
2018-09-03T15:39:58.664Z,40.00
2018-09-03T15:42:27.679Z,39.90
2018-09-03T15:44:56.635Z,41.50
2018-09-03T15:47:25.558Z,41.60
2018-09-03T15:49:55.044Z,41.90
2018-09-03T15:52:23.980Z,41.60
2018-09-03T15:54:53.436Z,41.10
2018-09-03T15:57:22.362Z,41.20
2018-09-03T15:59:51.279Z,41.80
2018-09-03T16:02:20.139Z,42.50
2018-09-03T16:04:49.019Z,42.70
2018-09-03T16:07:17.996Z,42.70
2018-09-03T16:09:46.898Z,42.80
2018-09-03T16:12:15.799Z,42.30
2018-09-03T16:14:44.862Z,42.20
2018-09-03T16:17:13.726Z,42.60
2018-09-03T16:19:42.602Z,42.30
2018-09-03T16:22:11.837Z,42.20
2018-09-03T16:24:41.504Z,42.60
2018-09-03T16:27:10.474Z,42.70
2018-09-03T16:29:39.319Z,43.00
2018-09-03T16:32:08.245Z,42.80
2018-09-03T16:34:38.065Z,43.10
2018-09-03T16:37:07.110Z,43.40
2018-09-03T16:39:36.880Z,43.70
2018-09-03T16:42:07.308Z,43.90
2018-09-03T16:44:36.169Z,44.10
2018-09-03T16:47:05.548Z,44.30
2018-09-03T16:49:34.427Z,44.40
2018-09-03T16:52:03.298Z,44.30
2018-09-03T16:54:32.345Z,44.40
2018-09-03T16:57:01.276Z,44.50
2018-09-03T16:59:30.645Z,44.70
2018-09-03T17:01:59.496Z,44.70
2018-09-03T17:04:28.356Z,44.70
2018-09-03T17:06:57.202Z,44.70
2018-09-03T17:09:26.100Z,44.80
2018-09-03T17:11:58.650Z,44.80
2018-09-03T17:14:27.760Z,44.90
2018-09-03T17:16:57.686Z,45.00
2018-09-03T17:19:29.195Z,45.10
2018-09-03T17:21:58.146Z,45.40
2018-09-03T17:24:27.122Z,45.30
2018-09-03T17:26:56.095Z,45.30
2018-09-03T17:29:26.345Z,45.30
2018-09-03T17:31:55.283Z,45.50
2018-09-03T17:34:25.703Z,45.50
2018-09-03T17:36:54.643Z,46.20
2018-09-03T17:39:24.209Z,45.50
2018-09-03T17:41:53.045Z,45.40
2018-09-03T17:44:21.905Z,45.50
2018-09-03T17:46:52.809Z,45.50
2018-09-03T17:49:23.067Z,45.60
2018-09-03T17:51:51.975Z,45.60
2018-09-03T17:54:21.491Z,45.60
2018-09-03T17:56:51.876Z,45.80
2018-09-03T17:59:21.501Z,45.90
2018-09-03T18:01:50.477Z,45.90
2018-09-03T18:04:19.459Z,46.10
2018-09-03T18:06:48.418Z,46.20
2018-09-03T18:09:17.942Z,46.10
2018-09-03T18:11:46.925Z,46.30
2018-09-03T18:14:15.775Z,46.30
2018-09-03T18:16:44.632Z,46.30
2018-09-03T18:19:13.494Z,46.40
2018-09-03T18:21:42.504Z,46.50
2018-09-03T18:24:11.377Z,46.60
2018-09-03T18:26:40.372Z,46.70
2018-09-03T18:29:09.316Z,46.70
2018-09-03T18:31:38.199Z,46.70
2018-09-03T18:34:07.096Z,46.90
2018-09-03T18:36:35.942Z,46.90
2018-09-03T18:39:05.923Z,47.00
2018-09-03T18:41:34.824Z,47.20
2018-09-03T18:44:04.530Z,47.20
2018-09-03T18:46:33.562Z,47.20
2018-09-03T18:49:02.967Z,47.30
2018-09-03T18:51:32.027Z,47.40
2018-09-03T18:54:01.635Z,47.50
2018-09-03T18:56:30.543Z,47.50
2018-09-03T18:58:59.539Z,47.60
2018-09-03T19:01:28.459Z,47.90
2018-09-03T19:03:57.434Z,48.10
2018-09-03T19:06:26.431Z,48.20
2018-09-03T19:08:55.335Z,48.40
2018-09-03T19:11:24.275Z,48.60
2018-09-03T19:13:53.225Z,48.70
2018-09-03T19:16:22.101Z,48.90
2018-09-03T19:18:50.952Z,49.00
2018-09-03T19:21:19.926Z,49.10
2018-09-03T19:23:48.748Z,49.30
2018-09-03T19:26:17.659Z,49.40
2018-09-03T19:28:46.559Z,49.70
2018-09-03T19:31:15.414Z,49.60
2018-09-03T19:33:44.530Z,49.70
2018-09-03T19:36:13.725Z,50.00
2018-09-03T19:38:42.857Z,50.00
2018-09-03T19:41:12.006Z,50.00
2018-09-03T19:43:41.117Z,50.10
2018-09-03T19:46:09.959Z,50.10
2018-09-03T19:48:38.915Z,50.30
2018-09-03T19:51:07.710Z,50.40
2018-09-03T19:53:36.607Z,50.40
2018-09-03T19:56:05.566Z,50.40
2018-09-03T19:58:34.481Z,50.50
2018-09-03T20:01:03.319Z,50.60
2018-09-03T20:03:32.173Z,51.00
2018-09-03T20:06:01.376Z,51.40
2018-09-03T20:08:30.650Z,51.40
2018-09-03T20:11:00.020Z,51.30
2018-09-03T20:13:29.043Z,51.50
2018-09-03T20:15:57.920Z,51.40
2018-09-03T20:18:26.836Z,52.10
2018-09-03T20:20:55.710Z,52.10
2018-09-03T20:23:24.687Z,52.00
2018-09-03T20:25:53.460Z,52.00
2018-09-03T20:28:22.357Z,52.10
2018-09-03T20:30:51.210Z,52.80
2018-09-03T20:33:20.450Z,52.70
2018-09-03T20:35:49.543Z,52.60
2018-09-03T20:38:18.417Z,52.60
2018-09-03T20:40:47.285Z,52.80
2018-09-03T20:43:16.203Z,52.80
2018-09-03T20:45:45.081Z,52.80
2018-09-03T20:48:14.772Z,52.90
2018-09-03T20:50:44.633Z,53.10
2018-09-03T20:53:13.750Z,53.40
2018-09-03T20:55:42.604Z,53.50
2018-09-03T20:58:11.462Z,53.40
2018-09-03T21:00:40.335Z,53.40
2018-09-03T21:03:09.193Z,53.40
2018-09-03T21:05:38.039Z,53.40
2018-09-03T21:08:06.930Z,53.50
2018-09-03T21:10:35.880Z,53.60
2018-09-03T21:13:05.123Z,53.70
2018-09-03T21:15:34.677Z,53.90
2018-09-03T21:18:04.433Z,53.90
2018-09-03T21:20:33.399Z,54.00
2018-09-03T21:23:02.413Z,54.00
2018-09-03T21:25:31.230Z,54.10
2018-09-03T21:28:00.158Z,54.20
2018-09-03T21:30:29.348Z,54.30
2018-09-03T21:32:58.182Z,54.40
2018-09-03T21:35:27.037Z,54.50
2018-09-03T21:37:55.916Z,54.60
2018-09-03T21:40:24.856Z,54.50
2018-09-03T21:42:53.730Z,54.50
2018-09-03T21:45:22.585Z,54.60
2018-09-03T21:47:51.464Z,54.70
2018-09-03T21:50:20.348Z,54.70
2018-09-03T21:52:49.203Z,54.80
2018-09-03T21:55:18.053Z,55.70
2018-09-03T21:57:46.908Z,55.30
2018-09-03T22:00:15.848Z,55.90
2018-09-03T22:02:45.336Z,55.20
2018-09-03T22:05:14.217Z,55.20
2018-09-03T22:07:43.060Z,55.70
2018-09-03T22:10:11.926Z,55.70
2018-09-03T22:12:40.763Z,56.40
2018-09-03T22:15:09.671Z,55.90
2018-09-03T22:17:38.498Z,56.20
2018-09-03T22:20:07.385Z,56.30
2018-09-03T22:22:36.210Z,55.90
2018-09-03T22:25:05.166Z,56.60
2018-09-03T22:27:34.087Z,57.90
2018-09-03T22:30:02.953Z,57.70
2018-09-03T22:32:31.800Z,56.90
2018-09-03T22:35:00.667Z,56.60
2018-09-03T22:37:29.619Z,56.40
2018-09-03T22:39:58.557Z,56.60
2018-09-03T22:42:28.165Z,57.30
2018-09-03T22:44:58.203Z,57.40
2018-09-03T22:47:27.016Z,57.70
2018-09-03T22:49:55.948Z,58.30
2018-09-03T22:52:24.791Z,57.90
2018-09-03T22:54:53.896Z,58.80
2018-09-03T22:57:22.775Z,58.50
2018-09-03T22:59:51.791Z,57.70
2018-09-03T23:02:20.711Z,58.90
2018-09-03T23:04:49.569Z,59.00
2018-09-03T23:07:18.369Z,58.20
2018-09-03T23:09:47.293Z,57.70
2018-09-03T23:12:16.334Z,58.20
2018-09-03T23:14:45.254Z,58.40
2018-09-03T23:17:14.570Z,59.10
2018-09-03T23:19:43.419Z,59.10
2018-09-03T23:22:12.256Z,59.90
2018-09-03T23:24:41.112Z,58.20
2018-09-03T23:27:09.947Z,57.70
2018-09-03T23:29:38.788Z,57.40
2018-09-03T23:32:07.637Z,57.40
2018-09-03T23:34:36.480Z,56.90
2018-09-03T23:37:05.380Z,57.60
2018-09-03T23:39:34.236Z,57.10
2018-09-03T23:42:03.191Z,56.80
2018-09-03T23:44:32.019Z,57.10
2018-09-03T23:47:00.843Z,58.70
2018-09-03T23:49:29.818Z,58.80
2018-09-03T23:51:58.729Z,59.10
2018-09-03T23:54:27.580Z,59.20
2018-09-03T23:56:56.612Z,58.30
2018-09-03T23:59:25.463Z,57.70
